createdAt,value
2018-02-19T00:00:03.887Z,20.91
2018-02-19T00:00:35.514Z,20.94
2018-02-19T00:01:07.195Z,20.74
2018-02-19T00:01:38.818Z,20.93
2018-02-19T00:02:10.442Z,20.93
2018-02-19T00:02:42.071Z,20.94
2018-02-19T00:03:13.698Z,20.97
2018-02-19T00:03:45.335Z,20.96
2018-02-19T00:04:16.962Z,20.94
2018-02-19T00:04:48.586Z,20.93
2018-02-19T00:05:20.219Z,20.92
2018-02-19T00:05:51.850Z,20.92
2018-02-19T00:06:23.501Z,20.93
2018-02-19T00:06:55.191Z,20.93
2018-02-19T00:07:26.813Z,20.94
2018-02-19T00:07:58.445Z,20.98
2018-02-19T00:08:30.070Z,21.01
2018-02-19T00:09:01.701Z,21.03
2018-02-19T00:09:33.326Z,21.02
2018-02-19T00:10:04.949Z,21.03
2018-02-19T00:10:36.574Z,21.03
2018-02-19T00:11:08.198Z,21.05
2018-02-19T00:11:39.827Z,21.07
2018-02-19T00:12:11.502Z,21.05
2018-02-19T00:12:43.130Z,21.06
2018-02-19T00:13:14.754Z,21.06
2018-02-19T00:13:46.384Z,21.08
2018-02-19T00:14:18.011Z,21.08
2018-02-19T00:14:49.642Z,21.06
2018-02-19T00:15:21.306Z,21.04
2018-02-19T00:15:52.939Z,21.02
2018-02-19T00:16:25.612Z,21.04
2018-02-19T00:16:57.233Z,21.01
2018-02-19T00:17:28.915Z,21.03
2018-02-19T00:18:00.538Z,21.04
2018-02-19T00:18:32.162Z,20.98
2018-02-19T00:19:03.793Z,21.07
2018-02-19T00:19:35.422Z,21.05
2018-02-19T00:20:07.045Z,21.03
2018-02-19T00:20:38.673Z,21.01
2018-02-19T00:21:10.308Z,21.00
2018-02-19T00:21:41.938Z,21.07
2018-02-19T00:22:13.568Z,21.10
2018-02-19T00:22:45.238Z,21.07
2018-02-19T00:23:16.861Z,21.04
2018-02-19T00:23:48.486Z,20.98
2018-02-19T00:24:20.109Z,20.92
2018-02-19T00:24:51.739Z,20.92
2018-02-19T00:25:23.366Z,20.92
2018-02-19T00:25:54.991Z,20.90
2018-02-19T00:26:26.618Z,20.91
2018-02-19T00:26:58.290Z,20.90
2018-02-19T00:27:29.917Z,20.90
2018-02-19T00:28:01.543Z,20.92
2018-02-19T00:28:33.175Z,20.93
2018-02-19T00:29:04.807Z,20.93
2018-02-19T00:29:36.434Z,20.94
2018-02-19T00:30:08.058Z,20.95
2018-02-19T00:30:39.682Z,20.93
2018-02-19T00:31:11.307Z,20.94
2018-02-19T00:31:42.982Z,20.92
2018-02-19T00:32:14.631Z,20.93
2018-02-19T00:32:46.258Z,20.92
2018-02-19T00:33:17.886Z,20.92
2018-02-19T00:33:49.513Z,20.92
2018-02-19T00:34:21.142Z,20.92
2018-02-19T00:34:52.770Z,20.92
2018-02-19T00:35:24.398Z,20.94
2018-02-19T00:35:56.026Z,20.96
2018-02-19T00:36:27.654Z,20.96
2018-02-19T00:36:59.279Z,20.90
2018-02-19T00:37:30.902Z,20.91
2018-02-19T00:38:02.530Z,20.90
2018-02-19T00:38:34.154Z,20.88
2018-02-19T00:39:05.781Z,20.88
2018-02-19T00:39:37.407Z,20.87
2018-02-19T00:40:09.034Z,20.88
2018-02-19T00:40:40.702Z,20.90
2018-02-19T00:41:12.330Z,20.91
2018-02-19T00:41:43.961Z,20.90
2018-02-19T00:42:15.585Z,20.90
2018-02-19T00:42:47.210Z,20.92
2018-02-19T00:43:19.113Z,20.93
2018-02-19T00:43:51.860Z,20.90
2018-02-19T00:44:23.510Z,20.91
2018-02-19T00:44:55.139Z,20.89
2018-02-19T00:45:26.762Z,20.90
2018-02-19T00:45:58.386Z,20.87
2018-02-19T00:46:30.010Z,20.87
2018-02-19T00:47:01.639Z,20.86
2018-02-19T00:47:33.262Z,20.85
2018-02-19T00:48:04.891Z,20.85
2018-02-19T00:48:36.572Z,20.86
2018-02-19T00:49:08.193Z,20.86
2018-02-19T00:49:39.818Z,20.86
2018-02-19T00:50:11.446Z,20.85
2018-02-19T00:50:43.074Z,20.84
2018-02-19T00:51:14.702Z,20.85
2018-02-19T00:51:46.326Z,20.86
2018-02-19T00:52:17.950Z,20.84
2018-02-19T00:52:49.579Z,20.87
2018-02-19T00:53:21.201Z,20.87
2018-02-19T00:53:52.866Z,20.89
2018-02-19T00:54:24.495Z,20.90
2018-02-19T00:54:56.146Z,20.92
2018-02-19T00:55:27.774Z,20.90
2018-02-19T00:55:59.398Z,20.89
2018-02-19T00:56:31.026Z,20.92
2018-02-19T00:57:02.657Z,20.92
2018-02-19T00:57:34.282Z,20.90
2018-02-19T00:58:05.910Z,20.92
2018-02-19T00:58:37.727Z,20.91
2018-02-19T00:59:09.350Z,20.92
2018-02-19T00:59:40.974Z,20.89
2018-02-19T01:00:12.602Z,20.91
2018-02-19T01:00:44.230Z,20.88
2018-02-19T01:01:15.854Z,20.88
2018-02-19T01:01:47.481Z,20.86
2018-02-19T01:02:19.110Z,20.87
2018-02-19T01:02:50.736Z,20.87
2018-02-19T01:03:22.359Z,20.89
2018-02-19T01:03:54.026Z,20.88
2018-02-19T01:04:25.658Z,20.88
2018-02-19T01:04:57.286Z,20.87
2018-02-19T01:05:28.910Z,20.89
2018-02-19T01:06:00.539Z,20.88
2018-02-19T01:06:32.170Z,20.89
2018-02-19T01:07:03.799Z,20.90
2018-02-19T01:07:35.478Z,20.89
2018-02-19T01:08:07.101Z,20.88
2018-02-19T01:08:38.723Z,20.87
2018-02-19T01:09:10.346Z,20.86
2018-02-19T01:09:41.970Z,20.84
2018-02-19T01:10:13.602Z,20.86
2018-02-19T01:10:45.232Z,20.84
2018-02-19T01:11:16.858Z,20.85
2018-02-19T01:11:48.486Z,20.85
2018-02-19T01:12:20.107Z,20.82
2018-02-19T01:12:51.730Z,20.84
2018-02-19T01:13:23.354Z,20.84
2018-02-19T01:13:54.978Z,20.84
2018-02-19T01:14:26.602Z,20.84
2018-02-19T01:14:58.226Z,20.83
2018-02-19T01:15:29.855Z,20.85
2018-02-19T01:16:01.479Z,20.88
2018-02-19T01:16:33.101Z,20.91
2018-02-19T01:17:04.730Z,20.93
2018-02-19T01:17:36.358Z,20.95
2018-02-19T01:18:07.981Z,20.98
2018-02-19T01:18:39.630Z,20.98
2018-02-19T01:19:11.262Z,20.97
2018-02-19T01:19:42.886Z,20.96
2018-02-19T01:20:14.558Z,20.94
2018-02-19T01:20:46.177Z,20.92
2018-02-19T01:21:17.805Z,20.92
2018-02-19T01:21:49.426Z,20.92
2018-02-19T01:22:21.136Z,20.91
2018-02-19T01:22:52.765Z,20.94
2018-02-19T01:23:24.394Z,20.94
2018-02-19T01:23:56.027Z,20.94
2018-02-19T01:24:27.654Z,20.95
2018-02-19T01:24:59.281Z,20.93
2018-02-19T01:25:30.910Z,20.93
2018-02-19T01:26:02.538Z,20.94
2018-02-19T01:26:34.214Z,20.93
2018-02-19T01:27:05.842Z,20.94
2018-02-19T01:27:37.466Z,20.91
2018-02-19T01:28:09.094Z,20.92
2018-02-19T01:28:40.718Z,20.93
2018-02-19T01:29:12.346Z,20.94
2018-02-19T01:29:43.974Z,20.93
2018-02-19T01:30:15.600Z,20.93
2018-02-19T01:30:47.222Z,20.92
2018-02-19T01:31:18.856Z,20.92
2018-02-19T01:31:50.525Z,20.91
2018-02-19T01:32:22.194Z,20.90
2018-02-19T01:32:53.862Z,20.89
2018-02-19T01:33:25.487Z,20.91
2018-02-19T01:33:57.114Z,20.89
2018-02-19T01:34:28.742Z,20.89
2018-02-19T01:35:00.374Z,20.88
2018-02-19T01:35:32.041Z,20.92
2018-02-19T01:36:03.671Z,20.92
2018-02-19T01:36:35.294Z,20.93
2018-02-19T01:37:06.922Z,20.94
2018-02-19T01:37:38.546Z,20.93
2018-02-19T01:38:10.174Z,20.95
2018-02-19T01:38:41.802Z,20.96
2018-02-19T01:39:13.434Z,20.95
2018-02-19T01:39:45.078Z,20.94
2018-02-19T01:40:16.701Z,20.94
2018-02-19T01:40:48.374Z,20.95
2018-02-19T01:41:20.002Z,20.93
2018-02-19T01:41:51.625Z,20.90
2018-02-19T01:42:23.246Z,20.90
2018-02-19T01:42:54.874Z,20.88
2018-02-19T01:43:26.499Z,20.86
2018-02-19T01:43:58.122Z,20.85
2018-02-19T01:44:29.747Z,20.89
2018-02-19T01:45:01.372Z,20.88
2018-02-19T01:45:32.998Z,20.89
2018-02-19T01:46:04.670Z,20.87
2018-02-19T01:46:36.294Z,20.87
2018-02-19T01:47:07.926Z,20.81
2018-02-19T01:47:39.554Z,20.83
2018-02-19T01:48:11.177Z,20.84
2018-02-19T01:48:42.798Z,20.83
2018-02-19T01:49:14.422Z,20.84
2018-02-19T01:49:46.086Z,20.84
2018-02-19T01:50:17.710Z,20.84
2018-02-19T01:50:49.335Z,20.85
2018-02-19T01:51:20.966Z,20.89
2018-02-19T01:51:52.596Z,20.91
2018-02-19T01:52:24.226Z,20.90
2018-02-19T01:52:55.850Z,20.94
2018-02-19T01:53:27.474Z,20.94
2018-02-19T01:53:59.097Z,20.95
2018-02-19T01:54:30.723Z,20.95
2018-02-19T01:55:02.346Z,20.98
2018-02-19T01:55:33.974Z,20.93
2018-02-19T01:56:05.599Z,20.97
2018-02-19T01:56:37.222Z,20.99
2018-02-19T01:57:08.841Z,20.98
2018-02-19T01:57:40.465Z,20.96
2018-02-19T01:58:12.086Z,20.96
2018-02-19T01:58:43.711Z,20.98
2018-02-19T01:59:15.334Z,21.00
2018-02-19T01:59:47.011Z,20.98
2018-02-19T02:00:18.634Z,20.99
2018-02-19T02:00:50.263Z,20.98
2018-02-19T02:01:21.886Z,20.96
2018-02-19T02:01:53.514Z,20.96
2018-02-19T02:02:25.146Z,20.98
2018-02-19T02:02:56.774Z,20.97
2018-02-19T02:03:28.403Z,20.96
2018-02-19T02:04:00.029Z,20.97
2018-02-19T02:04:31.650Z,20.96
2018-02-19T02:05:03.326Z,20.96
2018-02-19T02:05:34.950Z,20.96
2018-02-19T02:06:06.573Z,20.96
2018-02-19T02:06:38.203Z,20.99
2018-02-19T02:07:09.825Z,20.98
2018-02-19T02:07:41.446Z,20.96
2018-02-19T02:08:13.072Z,20.96
2018-02-19T02:08:44.706Z,20.96
2018-02-19T02:09:16.329Z,20.94
2018-02-19T02:09:47.954Z,20.98
2018-02-19T02:10:19.639Z,20.97
2018-02-19T02:10:51.261Z,20.95
2018-02-19T02:11:22.882Z,20.95
2018-02-19T02:11:54.505Z,20.95
2018-02-19T02:12:26.129Z,20.98
2018-02-19T02:12:57.841Z,20.98
2018-02-19T02:13:29.470Z,20.98
2018-02-19T02:14:01.098Z,20.95
2018-02-19T02:14:32.727Z,20.94
2018-02-19T02:15:04.375Z,20.94
2018-02-19T02:15:36.050Z,20.96
2018-02-19T02:16:07.674Z,20.95
2018-02-19T02:16:39.298Z,20.94
2018-02-19T02:17:10.923Z,20.94
2018-02-19T02:17:42.546Z,20.95
2018-02-19T02:18:14.174Z,20.96
2018-02-19T02:18:45.803Z,20.92
2018-02-19T02:19:17.425Z,20.93
2018-02-19T02:19:49.054Z,20.93
2018-02-19T02:20:20.683Z,20.95
2018-02-19T02:20:52.354Z,20.95
2018-02-19T02:21:23.978Z,20.93
2018-02-19T02:21:55.606Z,20.93
2018-02-19T02:22:27.235Z,20.96
2018-02-19T02:22:58.858Z,20.96
2018-02-19T02:23:30.524Z,20.88
2018-02-19T02:24:02.146Z,20.97
2018-02-19T02:24:33.771Z,20.98
2018-02-19T02:25:05.442Z,20.99
2018-02-19T02:25:37.066Z,20.99
2018-02-19T02:26:08.695Z,20.97
2018-02-19T02:26:40.364Z,20.97
2018-02-19T02:27:11.978Z,20.95
2018-02-19T02:27:43.650Z,21.00
2018-02-19T02:28:15.285Z,20.98
2018-02-19T02:28:46.911Z,20.98
2018-02-19T02:29:18.538Z,20.93
2018-02-19T02:29:50.162Z,20.95
2018-02-19T02:30:21.791Z,20.94
2018-02-19T02:30:53.468Z,20.95
2018-02-19T02:31:25.091Z,20.97
2018-02-19T02:31:56.713Z,20.98
2018-02-19T02:32:28.338Z,20.97
2018-02-19T02:33:00.009Z,20.93
2018-02-19T02:33:31.638Z,20.94
2018-02-19T02:34:03.275Z,20.94
2018-02-19T02:34:34.898Z,20.92
2018-02-19T02:35:06.521Z,20.92
2018-02-19T02:35:38.147Z,20.90
2018-02-19T02:36:09.779Z,20.89
2018-02-19T02:36:41.408Z,20.90
2018-02-19T02:37:13.030Z,20.90
2018-02-19T02:37:44.654Z,20.94
2018-02-19T02:38:16.326Z,20.94
2018-02-19T02:38:47.951Z,20.93
2018-02-19T02:39:19.574Z,20.92
2018-02-19T02:39:51.198Z,20.93
2018-02-19T02:40:22.827Z,20.91
2018-02-19T02:40:54.452Z,20.89
2018-02-19T02:41:26.082Z,20.91
2018-02-19T02:41:57.706Z,20.91
2018-02-19T02:42:29.329Z,20.88
2018-02-19T02:43:00.962Z,20.91
2018-02-19T02:43:32.634Z,20.94
2018-02-19T02:44:04.267Z,20.93
2018-02-19T02:44:35.898Z,20.90
2018-02-19T02:45:07.526Z,20.88
2018-02-19T02:45:39.158Z,20.87
2018-02-19T02:46:10.782Z,20.85
2018-02-19T02:46:42.411Z,20.85
2018-02-19T02:47:14.039Z,20.83
2018-02-19T02:47:45.674Z,20.84
2018-02-19T02:48:17.302Z,20.74
2018-02-19T02:48:48.926Z,20.83
2018-02-19T02:49:20.589Z,20.83
2018-02-19T02:49:52.214Z,20.85
2018-02-19T02:50:23.839Z,20.85
2018-02-19T02:50:55.466Z,20.89
2018-02-19T02:51:27.094Z,20.93
2018-02-19T02:51:58.721Z,20.94
2018-02-19T02:52:30.346Z,20.93
2018-02-19T02:53:02.016Z,20.93
2018-02-19T02:53:33.647Z,20.95
2018-02-19T02:54:05.275Z,20.95
2018-02-19T02:54:36.908Z,20.96
2018-02-19T02:55:08.538Z,20.95
2018-02-19T02:55:40.162Z,20.94
2018-02-19T02:56:11.827Z,20.93
2018-02-19T02:56:43.467Z,20.92
2018-02-19T02:57:15.089Z,20.93
2018-02-19T02:57:46.714Z,20.93
2018-02-19T02:58:18.351Z,20.91
2018-02-19T02:58:49.974Z,20.90
2018-02-19T02:59:21.602Z,20.89
2018-02-19T02:59:53.227Z,20.89
2018-02-19T03:00:24.850Z,20.90
2018-02-19T03:00:56.482Z,20.90
2018-02-19T03:01:28.150Z,20.92
2018-02-19T03:01:59.783Z,20.92
2018-02-19T03:02:31.405Z,20.93
2018-02-19T03:03:03.039Z,20.90
2018-02-19T03:03:34.690Z,20.90
2018-02-19T03:04:06.319Z,20.88
2018-02-19T03:04:37.987Z,20.89
2018-02-19T03:05:09.614Z,20.88
2018-02-19T03:05:41.249Z,20.90
2018-02-19T03:06:12.878Z,20.90
2018-02-19T03:06:44.506Z,20.90
2018-02-19T03:07:16.134Z,20.88
2018-02-19T03:07:47.757Z,20.88
2018-02-19T03:08:19.426Z,20.89
2018-02-19T03:08:51.050Z,20.90
2018-02-19T03:09:22.679Z,20.90
2018-02-19T03:09:54.302Z,20.90
2018-02-19T03:10:25.927Z,20.91
2018-02-19T03:10:57.762Z,20.88
2018-02-19T03:11:29.444Z,20.89
2018-02-19T03:12:01.070Z,20.91
2018-02-19T03:12:32.694Z,20.90
2018-02-19T03:13:04.322Z,20.89
2018-02-19T03:13:35.946Z,20.89
2018-02-19T03:14:07.566Z,20.87
2018-02-19T03:14:39.190Z,20.89
2018-02-19T03:15:10.814Z,20.92
2018-02-19T03:15:42.437Z,20.94
2018-02-19T03:16:14.062Z,20.94
2018-02-19T03:16:45.746Z,20.92
2018-02-19T03:17:17.371Z,20.92
2018-02-19T03:17:49.000Z,20.91
2018-02-19T03:18:20.626Z,20.92
2018-02-19T03:18:52.250Z,20.92
2018-02-19T03:19:23.873Z,20.90
2018-02-19T03:19:55.498Z,20.91
2018-02-19T03:20:27.131Z,20.92
2018-02-19T03:20:58.758Z,20.92
2018-02-19T03:21:30.386Z,20.91
2018-02-19T03:22:02.066Z,20.90
2018-02-19T03:22:33.690Z,20.89
2018-02-19T03:23:05.314Z,20.78
2018-02-19T03:23:36.942Z,20.89
2018-02-19T03:24:08.570Z,20.87
2018-02-19T03:24:40.198Z,20.89
2018-02-19T03:25:11.818Z,20.86
2018-02-19T03:25:43.441Z,20.89
2018-02-19T03:26:15.066Z,20.90
2018-02-19T03:26:46.695Z,20.90
2018-02-19T03:27:18.358Z,20.91
2018-02-19T03:27:49.985Z,20.87
2018-02-19T03:28:21.646Z,20.89
2018-02-19T03:28:53.318Z,20.88
2018-02-19T03:29:24.945Z,20.87
2018-02-19T03:29:56.566Z,20.88
2018-02-19T03:30:28.194Z,20.87
2018-02-19T03:30:59.818Z,20.88
2018-02-19T03:31:31.442Z,20.88
2018-02-19T03:32:03.067Z,20.86
2018-02-19T03:32:34.694Z,20.86
2018-02-19T03:33:06.322Z,20.87
2018-02-19T03:33:37.945Z,20.88
2018-02-19T03:34:09.618Z,20.89
2018-02-19T03:34:41.251Z,20.88
2018-02-19T03:35:12.883Z,20.87
2018-02-19T03:35:44.512Z,20.87
2018-02-19T03:36:16.133Z,20.75
2018-02-19T03:36:47.763Z,20.88
2018-02-19T03:37:19.390Z,20.88
2018-02-19T03:37:51.018Z,20.88
2018-02-19T03:38:22.646Z,20.88
2018-02-19T03:38:54.314Z,20.87
2018-02-19T03:39:25.943Z,20.88
2018-02-19T03:39:57.614Z,20.87
2018-02-19T03:40:29.242Z,20.89
2018-02-19T03:41:00.922Z,20.89
2018-02-19T03:41:32.554Z,20.89
2018-02-19T03:42:04.177Z,20.90
2018-02-19T03:42:35.798Z,20.89
2018-02-19T03:43:07.422Z,20.90
2018-02-19T03:43:39.050Z,20.90
2018-02-19T03:44:10.674Z,20.90
2018-02-19T03:44:42.302Z,20.90
2018-02-19T03:45:13.930Z,20.89
2018-02-19T03:45:45.557Z,20.90
2018-02-19T03:46:17.362Z,20.88
2018-02-19T03:46:48.994Z,20.88
2018-02-19T03:47:20.619Z,20.88
2018-02-19T03:47:52.247Z,20.90
2018-02-19T03:48:23.874Z,20.90
2018-02-19T03:48:55.501Z,20.89
2018-02-19T03:49:27.129Z,20.92
2018-02-19T03:49:58.751Z,20.90
2018-02-19T03:50:30.410Z,20.92
2018-02-19T03:51:02.038Z,21.05
2018-02-19T03:51:33.718Z,21.10
2018-02-19T03:52:05.342Z,21.11
2018-02-19T03:52:36.970Z,21.10
2018-02-19T03:53:08.594Z,21.03
2018-02-19T03:53:40.222Z,20.98
2018-02-19T03:54:11.845Z,20.94
2018-02-19T03:54:43.474Z,20.87
2018-02-19T03:55:15.098Z,20.84
2018-02-19T03:55:46.717Z,20.80
2018-02-19T03:56:18.343Z,20.77
2018-02-19T03:56:50.006Z,20.82
2018-02-19T03:57:21.630Z,20.88
2018-02-19T03:57:53.258Z,20.88
2018-02-19T03:58:24.926Z,20.93
2018-02-19T03:58:56.551Z,20.98
2018-02-19T03:59:28.179Z,21.01
2018-02-19T03:59:59.806Z,20.98
2018-02-19T04:00:31.438Z,20.92
2018-02-19T04:01:03.067Z,20.80
2018-02-19T04:01:34.703Z,20.72
2018-02-19T04:02:06.334Z,20.65
2018-02-19T04:02:38.002Z,20.71
2018-02-19T04:03:09.626Z,20.81
2018-02-19T04:03:41.249Z,20.82
2018-02-19T04:04:12.874Z,20.76
2018-02-19T04:04:44.549Z,20.78
2018-02-19T04:05:16.173Z,20.79
2018-02-19T04:05:47.794Z,20.82
2018-02-19T04:06:19.422Z,20.80
2018-02-19T04:06:51.046Z,20.76
2018-02-19T04:07:22.679Z,20.74
2018-02-19T04:07:54.298Z,20.71
2018-02-19T04:08:25.926Z,20.71
2018-02-19T04:08:57.555Z,20.71
2018-02-19T04:09:29.189Z,20.70
2018-02-19T04:10:00.866Z,20.69
2018-02-19T04:10:32.494Z,20.69
2018-02-19T04:11:04.114Z,20.59
2018-02-19T04:11:35.738Z,20.67
2018-02-19T04:12:07.366Z,20.68
2018-02-19T04:12:38.990Z,20.68
2018-02-19T04:13:10.618Z,20.68
2018-02-19T04:13:42.247Z,20.67
2018-02-19T04:14:13.870Z,20.68
2018-02-19T04:14:45.498Z,20.70
2018-02-19T04:15:17.133Z,20.68
2018-02-19T04:15:48.758Z,20.67
2018-02-19T04:16:20.381Z,20.66
2018-02-19T04:16:52.014Z,20.66
2018-02-19T04:17:23.638Z,20.65
2018-02-19T04:17:55.266Z,20.67
2018-02-19T04:18:26.894Z,20.66
2018-02-19T04:18:58.517Z,20.67
2018-02-19T04:19:30.143Z,20.66
2018-02-19T04:20:01.766Z,20.65
2018-02-19T04:20:33.429Z,20.64
2018-02-19T04:21:05.059Z,20.65
2018-02-19T04:21:36.686Z,20.65
2018-02-19T04:22:08.309Z,20.66
2018-02-19T04:22:39.970Z,20.66
2018-02-19T04:23:11.645Z,20.67
2018-02-19T04:23:43.269Z,20.65
2018-02-19T04:24:14.899Z,20.65
2018-02-19T04:24:46.530Z,20.64
2018-02-19T04:25:18.154Z,20.64
2018-02-19T04:25:49.782Z,20.62
2018-02-19T04:26:21.406Z,20.60
2018-02-19T04:26:53.030Z,20.62
2018-02-19T04:27:24.666Z,20.62
2018-02-19T04:27:56.337Z,20.62
2018-02-19T04:28:27.973Z,20.64
2018-02-19T04:28:59.603Z,20.63
2018-02-19T04:29:31.226Z,20.65
2018-02-19T04:30:02.850Z,20.63
2018-02-19T04:30:34.486Z,20.64
2018-02-19T04:31:06.119Z,20.63
2018-02-19T04:31:37.742Z,20.64
2018-02-19T04:32:09.366Z,20.63
2018-02-19T04:32:40.998Z,20.61
2018-02-19T04:33:12.665Z,20.61
2018-02-19T04:33:44.290Z,20.61
2018-02-19T04:34:15.916Z,20.61
2018-02-19T04:34:47.541Z,20.61
2018-02-19T04:35:19.170Z,20.61
2018-02-19T04:35:50.802Z,20.62
2018-02-19T04:36:22.431Z,20.62
2018-02-19T04:36:54.054Z,20.62
2018-02-19T04:37:25.686Z,20.63
2018-02-19T04:37:57.311Z,20.61
2018-02-19T04:38:28.983Z,20.60
2018-02-19T04:39:00.614Z,20.63
2018-02-19T04:39:32.238Z,20.63
2018-02-19T04:40:03.867Z,20.65
2018-02-19T04:40:35.494Z,20.63
2018-02-19T04:41:07.118Z,20.62
2018-02-19T04:41:38.743Z,20.63
2018-02-19T04:42:10.371Z,20.66
2018-02-19T04:42:42.015Z,20.66
2018-02-19T04:43:14.277Z,20.64
2018-02-19T04:43:45.953Z,20.64
2018-02-19T04:44:23.291Z,20.64
2018-02-19T04:45:11.652Z,20.66
2018-02-19T04:45:43.298Z,20.63
2018-02-19T04:46:34.755Z,20.64
2018-02-19T04:47:06.398Z,20.62
2018-02-19T04:47:38.022Z,20.63
2018-02-19T04:48:09.641Z,20.64
2018-02-19T04:48:41.266Z,20.56
2018-02-19T04:49:12.938Z,20.63
2018-02-19T04:49:44.561Z,20.76
2018-02-19T04:50:16.220Z,20.84
2018-02-19T04:50:47.902Z,20.88
2018-02-19T04:51:19.526Z,20.85
2018-02-19T04:51:51.155Z,20.86
2018-02-19T04:52:22.785Z,20.84
2018-02-19T04:52:54.411Z,20.83
2018-02-19T04:53:26.042Z,20.70
2018-02-19T04:53:57.670Z,20.95
2018-02-19T04:54:29.299Z,20.98
2018-02-19T04:55:00.934Z,20.97
2018-02-19T04:55:32.557Z,20.94
2018-02-19T04:56:04.233Z,20.87
2018-02-19T04:56:35.857Z,20.88
2018-02-19T04:57:07.502Z,20.92
2018-02-19T04:57:39.130Z,20.91
2018-02-19T04:58:10.755Z,20.92
2018-02-19T04:58:42.382Z,20.91
2018-02-19T04:59:14.010Z,20.92
2018-02-19T04:59:45.638Z,20.92
2018-02-19T05:00:17.262Z,20.91
2018-02-19T05:00:48.891Z,20.90
2018-02-19T05:01:20.582Z,20.91
2018-02-19T05:01:52.202Z,20.90
2018-02-19T05:02:23.826Z,20.91
2018-02-19T05:02:55.449Z,20.91
2018-02-19T05:03:27.079Z,20.90
2018-02-19T05:03:58.710Z,20.91
2018-02-19T05:04:30.390Z,20.94
2018-02-19T05:05:02.022Z,20.95
2018-02-19T05:05:33.648Z,20.93
2018-02-19T05:06:05.279Z,20.90
2018-02-19T05:06:36.903Z,20.86
2018-02-19T05:07:08.538Z,20.84
2018-02-19T05:07:40.166Z,20.83
2018-02-19T05:08:11.794Z,20.81
2018-02-19T05:08:43.421Z,20.81
2018-02-19T05:09:15.045Z,20.85
2018-02-19T05:09:46.669Z,20.82
2018-02-19T05:10:18.294Z,20.79
2018-02-19T05:10:49.926Z,20.82
2018-02-19T05:11:21.550Z,20.79
2018-02-19T05:11:53.174Z,20.80
2018-02-19T05:12:24.798Z,20.77
2018-02-19T05:12:56.422Z,20.76
2018-02-19T05:13:28.051Z,20.78
2018-02-19T05:13:59.725Z,20.77
2018-02-19T05:14:31.335Z,20.76
2018-02-19T05:15:03.014Z,20.77
2018-02-19T05:15:34.638Z,20.76
2018-02-19T05:16:06.306Z,20.76
2018-02-19T05:16:37.930Z,20.72
2018-02-19T05:17:09.558Z,20.70
2018-02-19T05:17:41.186Z,20.68
2018-02-19T05:18:12.858Z,20.68
2018-02-19T05:18:44.486Z,20.67
2018-02-19T05:19:16.114Z,20.65
2018-02-19T05:19:47.738Z,20.61
2018-02-19T05:20:19.361Z,20.61
2018-02-19T05:20:50.990Z,20.62
2018-02-19T05:21:22.658Z,20.61
2018-02-19T05:21:54.282Z,20.61
2018-02-19T05:22:25.906Z,20.60
2018-02-19T05:22:57.581Z,20.59
2018-02-19T05:23:29.238Z,20.60
2018-02-19T05:24:00.861Z,20.58
2018-02-19T05:24:32.490Z,20.57
2018-02-19T05:25:04.126Z,20.57
2018-02-19T05:25:35.754Z,20.55
2018-02-19T05:26:07.378Z,20.55
2018-02-19T05:26:39.007Z,20.56
2018-02-19T05:27:10.638Z,20.53
2018-02-19T05:27:42.310Z,20.53
2018-02-19T05:28:13.978Z,20.50
2018-02-19T05:28:45.597Z,20.52
2018-02-19T05:29:17.223Z,20.48
2018-02-19T05:29:48.890Z,20.47
2018-02-19T05:30:20.514Z,20.45
2018-02-19T05:30:52.162Z,20.46
2018-02-19T05:31:23.786Z,20.47
2018-02-19T05:31:55.414Z,20.45
2018-02-19T05:32:27.043Z,20.50
2018-02-19T05:32:58.671Z,20.53
2018-02-19T05:33:30.298Z,20.57
2018-02-19T05:34:01.970Z,20.58
2018-02-19T05:34:33.597Z,20.60
2018-02-19T05:35:05.226Z,20.59
2018-02-19T05:35:36.891Z,20.59
2018-02-19T05:36:08.514Z,20.61
2018-02-19T05:36:40.138Z,20.60
2018-02-19T05:37:11.762Z,20.62
2018-02-19T05:37:43.390Z,20.61
2018-02-19T05:38:15.022Z,20.61
2018-02-19T05:38:46.646Z,20.59
2018-02-19T05:39:18.274Z,20.58
2018-02-19T05:39:50.078Z,20.61
2018-02-19T05:40:21.709Z,20.61
2018-02-19T05:40:53.335Z,20.56
2018-02-19T05:41:24.958Z,20.68
2018-02-19T05:41:56.590Z,20.70
2018-02-19T05:42:28.214Z,20.70
2018-02-19T05:42:59.843Z,20.69
2018-02-19T05:43:31.473Z,20.67
2018-02-19T05:44:03.103Z,20.68
2018-02-19T05:44:34.727Z,20.68
2018-02-19T05:45:06.398Z,20.68
2018-02-19T05:45:38.022Z,20.69
2018-02-19T05:46:09.647Z,20.67
2018-02-19T05:46:41.278Z,20.70
2018-02-19T05:47:12.942Z,20.70
2018-02-19T05:47:44.565Z,20.71
2018-02-19T05:48:16.190Z,20.70
2018-02-19T05:48:47.818Z,20.70
2018-02-19T05:49:19.490Z,20.70
2018-02-19T05:49:51.126Z,20.71
2018-02-19T05:50:22.758Z,20.71
2018-02-19T05:50:54.383Z,20.71
2018-02-19T05:51:26.013Z,20.72
2018-02-19T05:51:57.638Z,20.74
2018-02-19T05:52:29.266Z,20.75
2018-02-19T05:53:00.889Z,20.76
2018-02-19T05:53:32.523Z,20.74
2018-02-19T05:54:04.154Z,20.74
2018-02-19T05:54:35.842Z,20.73
2018-02-19T05:55:07.471Z,20.74
2018-02-19T05:55:39.098Z,20.77
2018-02-19T05:56:10.721Z,20.76
2018-02-19T05:56:42.346Z,20.77
2018-02-19T05:57:13.971Z,20.74
2018-02-19T05:57:45.598Z,20.78
2018-02-19T05:58:17.231Z,20.78
2018-02-19T05:58:48.855Z,20.77
2018-02-19T05:59:20.482Z,20.78
2018-02-19T05:59:52.165Z,20.78
2018-02-19T06:00:23.790Z,20.77
2018-02-19T06:00:55.414Z,20.76
2018-02-19T06:01:27.043Z,20.75
2018-02-19T06:01:58.671Z,20.79
2018-02-19T06:02:30.302Z,20.78
2018-02-19T06:03:01.931Z,20.77
2018-02-19T06:03:33.554Z,20.80
2018-02-19T06:04:05.182Z,20.81
2018-02-19T06:04:36.811Z,20.81
2018-02-19T06:05:08.486Z,20.82
2018-02-19T06:05:40.112Z,20.80
2018-02-19T06:06:11.738Z,20.81
2018-02-19T06:06:43.366Z,20.80
2018-02-19T06:07:14.994Z,20.84
2018-02-19T06:07:46.618Z,20.85
2018-02-19T06:08:18.284Z,20.84
2018-02-19T06:08:49.906Z,20.85
2018-02-19T06:09:21.534Z,20.85
2018-02-19T06:09:53.162Z,20.89
2018-02-19T06:10:24.843Z,20.87
2018-02-19T06:10:56.465Z,20.86
2018-02-19T06:11:28.095Z,20.88
2018-02-19T06:11:59.717Z,20.87
2018-02-19T06:12:31.342Z,20.88
2018-02-19T06:13:02.967Z,20.87
2018-02-19T06:13:34.590Z,20.88
2018-02-19T06:14:06.209Z,20.88
2018-02-19T06:14:37.830Z,20.87
2018-02-19T06:15:09.458Z,20.91
2018-02-19T06:15:41.126Z,20.88
2018-02-19T06:16:12.750Z,20.86
2018-02-19T06:16:44.379Z,20.85
2018-02-19T06:17:16.006Z,20.87
2018-02-19T06:17:47.678Z,20.87
2018-02-19T06:18:19.306Z,20.88
2018-02-19T06:18:50.934Z,20.87
2018-02-19T06:19:22.558Z,20.85
2018-02-19T06:19:54.178Z,20.84
2018-02-19T06:20:25.807Z,20.83
2018-02-19T06:20:57.478Z,20.86
2018-02-19T06:21:29.107Z,20.86
2018-02-19T06:22:00.738Z,20.83
2018-02-19T06:22:32.366Z,20.85
2018-02-19T06:23:03.990Z,20.84
2018-02-19T06:23:35.614Z,20.86
2018-02-19T06:24:08.132Z,20.86
2018-02-19T06:24:39.762Z,20.87
2018-02-19T06:25:11.390Z,20.87
2018-02-19T06:25:43.018Z,20.87
2018-02-19T06:26:14.689Z,20.86
2018-02-19T06:26:46.329Z,20.84
2018-02-19T06:27:17.994Z,20.85
2018-02-19T06:27:49.617Z,20.85
2018-02-19T06:28:21.238Z,20.85
2018-02-19T06:28:52.862Z,20.85
2018-02-19T06:29:24.490Z,20.86
2018-02-19T06:29:56.119Z,20.87
2018-02-19T06:30:27.741Z,20.87
2018-02-19T06:30:59.363Z,20.86
2018-02-19T06:31:30.985Z,20.87
2018-02-19T06:32:02.610Z,20.89
2018-02-19T06:32:34.277Z,20.90
2018-02-19T06:33:05.926Z,20.88
2018-02-19T06:33:37.550Z,20.86
2018-02-19T06:34:09.178Z,20.89
2018-02-19T06:34:40.849Z,20.86
2018-02-19T06:35:12.483Z,20.85
2018-02-19T06:35:44.106Z,20.86
2018-02-19T06:36:15.730Z,20.84
2018-02-19T06:36:47.399Z,20.85
2018-02-19T06:37:19.030Z,20.85
2018-02-19T06:37:50.658Z,20.84
2018-02-19T06:38:22.282Z,20.84
2018-02-19T06:38:53.905Z,20.82
2018-02-19T06:39:25.534Z,20.83
2018-02-19T06:39:57.166Z,20.82
2018-02-19T06:40:28.832Z,20.84
2018-02-19T06:41:00.450Z,20.85
2018-02-19T06:41:32.117Z,20.84
2018-02-19T06:42:03.778Z,20.85
2018-02-19T06:42:35.401Z,20.82
2018-02-19T06:43:07.022Z,20.84
2018-02-19T06:43:38.646Z,20.85
2018-02-19T06:44:10.274Z,20.85
2018-02-19T06:44:41.902Z,20.84
2018-02-19T06:45:13.534Z,20.85
2018-02-19T06:45:45.162Z,20.81
2018-02-19T06:46:16.802Z,20.82
2018-02-19T06:46:48.475Z,20.81
2018-02-19T06:47:20.103Z,20.83
2018-02-19T06:47:51.721Z,20.78